Aviation Digital Data Service (ADDS)

Output produced by METARs form (1501 UTC 26 March 2017)
found at http://www.aviationweather.gov/adds/metars/
 
KSEG 261453Z AUTO 14009KT OVC019 06/03 A3038 RMK AO2 SLP289 T00610028 51012
KSEG 261353Z AUTO 12011KT OVC019 06/02 A3037 RMK AO2 SLP285 T00610022
KSEG 261253Z AUTO 09003KT OVC016 06/03 A3035 RMK AO2 SLP280 T00610033
KSEG 261201Z AUTO VRB06KT OVC015 06/03 A3034 RMK AO2 T00610033
KSEG 261153Z AUTO 10003KT OVC014 06/03 A3034 RMK AO2 SLP276 T00610033 10072 20061 51006
KSEG 261053Z AUTO 12004KT OVC014 06/03 A3034 RMK AO2 SLP276 T00610033
KSEG 260953Z AUTO 08007KT OVC014 06/03 A3033 RMK AO2 SLP274 T00610033
KSEG 260853Z AUTO 11006KT OVC016 07/04 A3032 RMK AO2 SLP271 T00670039 51004
KSEG 260753Z AUTO 15006KT OVC017 07/04 A3032 RMK AO2 SLP268 T00720039
KSEG 260653Z AUTO 00000KT OVC018 07/04 A3032 RMK AO2 SLP267 T00720044
KSEG 260553Z AUTO 05003KT BKN021 OVC035 07/05 A3031 RMK AO2 SLP266 T00670050 10106 20067 51003
KSEG 260551Z AUTO 05004KT BKN021 OVC035 07/05 A3031 RMK AO2
KSEG 260453Z AUTO 04007KT OVC037 07/05 A3031 RMK AO2 SLP264 T00720050 402110039
KSEG 260353Z AUTO 03005KT SCT070 07/05 A3030 RMK AO2 SLP263 T00720050
KSEG 260253Z AUTO 03005KT FEW075 OVC100 08/05 A3030 RMK AO2 SLP261 T00830050 51018 $
KSEG 260153Z AUTO 03009KT OVC060 09/05 A3030 RMK AO2 SLP262 T00890050 $
KSEG 260053Z AUTO 02007KT SCT060 BKN100 09/06 A3029 RMK AO2 SLP259 T00940056 $
KSEG 252353Z AUTO 03005KT FEW055 BKN075 11/06 A3025 RMK AO2 SLP244 60000 T01060061 10211 20100 51012 $
KSEG 252253Z AUTO 01004KT BKN065 OVC085 12/07 A3024 RMK AO2 SLP241 T01170067 $
KSEG 252153Z AUTO 03008KT OVC060 13/06 A3023 RMK AO2 SLP237 T01280061 $
KSEG 252053Z AUTO 02015KT FEW060 SCT100 12/06 A3021 RMK AO2 RAE1959 SLP232 P0000 60000 T01220061 53020 $
KSEG 251953Z AUTO 01016G21KT -RA BKN050 20/11 A3015 RMK AO2 RAB49 SLP210 P0000 T02000111 $
KSEG 251853Z AUTO 00000KT CLR 17/09 A3014 RMK AO2 SLP207 T01720089 $
KSEG 251753Z AUTO 00000KT FEW065 17/08 A3015 RMK AO2 SLP210 60000 T01670083 10167 20061 53001 $
KSEG 251653Z AUTO 00000KT CLR 14/07 A3015 RMK AO2 SLP210 T01440072 $
KSEG 251553Z AUTO 08003KT FEW046 BKN110 13/06 A3015 RMK AO2 RAB07E17 SLP209 P0000 T01280061 $
KSEG 251453Z AUTO 00000KT FEW110 12/06 A3015 RMK AO2 RAE02B30E50 SLP210 P0000 60000 T01220061 50003 $
KSEG 251353Z AUTO 00000KT -RA CLR 09/05 A3015 RMK AO2 RAB33E35B52 SLP212 P0000 T00890050 $
KSEG 251253Z AUTO 00000KT CLR 07/04 A3014 RMK AO2 SLP208 T00720044 $
KSEG 251153Z AUTO 00000KT FEW090 BKN110 06/04 A3014 RMK AO2 RAB15E25 SLP207 P0000 60000 T00610044 10067 20039 53015 $
KSEG 251053Z AUTO 00000KT 9SM SCT120 06/04 A3011 RMK AO2 SLP198 T00610044
KSEG 250953Z AUTO 00000KT 8SM CLR 06/04 A3010 RMK AO2 SLP195 T00560044
KSEG 250853Z AUTO 00000KT 9SM CLR 05/04 A3009 RMK AO2 SLP192 T00500039 55006
KSEG 250753Z AUTO 00000KT 8SM CLR 05/03 A3009 RMK AO2 SLP191 T00500033
KSEG 250653Z AUTO 00000KT 8SM CLR 05/03 A3010 RMK AO2 SLP193 T00500033
KSEG 250553Z AUTO 00000KT 10SM CLR 05/03 A3011 RMK AO2 SLP199 T00500033 10111 20039 58004
KSEG 250453Z AUTO 11003KT 10SM CLR 06/03 A3012 RMK AO2 SLP201 T00610033 401221033
KSEG 250353Z AUTO 00000KT 10SM CLR 09/04 A3012 RMK AO2 SLP202 T00940044